Ashville, New York
Current Conditions -  °F | °C
As of 9:35 AM on Friday 31 Oct 2014 (Local Time) from KJHW Reporting Station
Overcast Overcast  
Wind Chill: 35°   Ceiling: 4600
Heat Index: 39°   Visibility: 10mi
Dew Point: 36°   Wind: 6mph
Humidity: 87%   Direction: 170°S
Pressure: 29.93"   Gusts: NA
Location:  42.1°N, 79.38°W
Report Text: KJHW 311335Z AUTO 17005KT 10SM OVC046 04/02 A2993 RMK AO1
Loading
Personal Weather Stations






























Interactive Weather Map New forecast layout! Learn more

10-Day Weather Forecast

Advertisements
Track Severe Weather on mobile